Time;durP1;ratioP1;P1;durP2;ratioP2;P2;SDS_P1;SDS_P2;PMS_P1;PMS_P2;Temp;Humidity;BMP_temperature;BMP_pressure;BME280_temperature;BME280_humidity;BME280_pressure;Samples;Min_cycle;Max_cycle;Signal;HPM_P1;HPM_P2
2022/08/16 00:00:14;;;;;;;12.82;5.90;;;;;;;20.23;89.64;97300.38;1813012;78;21435;-60
2022/08/16 00:02:40;;;;;;;9.95;5.50;;;;;;;20.22;89.71;97306.98;1810129;78;21670;-60
2022/08/16 00:05:09;;;;;;;9.63;5.17;;;;;;;20.22;89.84;97308.34;1811777;78;20934;-60
2022/08/16 00:07:35;;;;;;;8.18;5.50;;;;;;;20.22;89.94;97308.34;1811367;78;20881;-61
2022/08/16 00:10:04;;;;;;;11.45;5.30;;;;;;;20.22;90.00;97304.26;1804890;78;20974;-60
2022/08/16 00:12:31;;;;;;;8.95;5.30;;;;;;;20.21;89.98;97299.93;1811424;78;20880;-60
2022/08/16 00:14:59;;;;;;;12.47;5.92;;;;;;;20.21;90.03;97305.37;1810263;78;22002;-61
2022/08/16 00:17:26;;;;;;;8.30;5.37;;;;;;;20.19;90.08;97307.67;1811899;78;20955;-61
2022/08/16 00:19:53;;;;;;;14.05;6.15;;;;;;;20.18;90.23;97314.28;1811208;78;21322;-61
2022/08/16 00:22:20;;;;;;;14.95;6.00;;;;;;;20.19;90.34;97314.47;1812830;78;21474;-61
2022/08/16 00:24:47;;;;;;;10.53;5.37;;;;;;;20.15;90.40;97309.58;1810824;78;20978;-60
2022/08/16 00:27:13;;;;;;;10.48;5.83;;;;;;;20.09;90.50;97313.75;1813400;78;21916;-60
2022/08/16 00:29:40;;;;;;;8.45;5.47;;;;;;;20.05;90.76;97312.92;1812074;78;21356;-61
2022/08/16 00:32:07;;;;;;;8.95;6.00;;;;;;;20.00;90.99;97311.88;1811683;78;20880;-61
2022/08/16 00:34:35;;;;;;;8.50;5.78;;;;;;;19.97;91.13;97305.05;1812121;78;20885;-61
2022/08/16 00:37:02;;;;;;;9.28;5.33;;;;;;;19.96;91.26;97306.19;1811054;78;20923;-60
2022/08/16 00:39:29;;;;;;;9.43;5.90;;;;;;;19.97;91.38;97301.77;1812041;78;21163;-61
2022/08/16 00:41:56;;;;;;;7.90;5.40;;;;;;;19.96;91.39;97296.11;1810226;78;20966;-61
2022/08/16 00:44:22;;;;;;;9.68;6.25;;;;;;;19.94;91.50;97290.83;1790166;78;20877;-60
2022/08/16 00:47:07;;;;;;;13.35;5.78;;;;;;;19.93;91.62;97290.03;1809626;78;21014;-62
2022/08/16 00:49:34;;;;;;;10.43;6.40;;;;;;;19.94;91.71;97289.47;1815256;78;21390;-60
2022/08/16 00:52:01;;;;;;;10.10;5.70;;;;;;;19.92;91.74;97285.77;1813890;78;21212;-60
2022/08/16 00:54:29;;;;;;;11.53;5.45;;;;;;;19.94;91.79;97290.26;1810539;78;20829;-60
2022/08/16 00:56:57;;;;;;;10.63;5.87;;;;;;;19.95;91.85;97297.24;1814813;78;21450;-61
2022/08/16 00:59:25;;;;;;;7.15;5.50;;;;;;;19.96;91.97;97305.62;1814355;78;21014;-61
2022/08/16 01:01:51;;;;;;;10.65;5.37;;;;;;;19.97;92.04;97305.84;1810305;78;21075;-60
2022/08/16 01:04:21;;;;;;;9.43;5.83;;;;;;;19.96;92.11;97301.55;1810225;78;21019;-61
2022/08/16 01:06:49;;;;;;;11.57;5.45;;;;;;;19.94;92.21;97305.20;1816157;78;21412;-60
2022/08/16 01:09:16;;;;;;;12.33;5.67;;;;;;;19.90;92.30;97307.09;1812412;78;20880;-60
2022/08/16 01:11:44;;;;;;;13.65;6.30;;;;;;;19.87;92.55;97303.75;1816246;78;21095;-60
2022/08/16 01:14:18;;;;;;;13.53;6.22;;;;;;;19.83;92.79;97296.13;1818095;78;20896;-60
2022/08/16 01:16:45;;;;;;;9.28;5.90;;;;;;;19.82;92.84;97292.40;1815348;78;21738;-61
2022/08/16 01:19:31;;;;;;;11.28;5.75;;;;;;;19.83;92.96;97293.98;1813423;78;21002;-59
2022/08/16 01:22:06;;;;;;;10.53;6.08;;;;;;;19.81;93.18;97282.70;1815734;78;20968;-61
2022/08/16 01:24:43;;;;;;;9.80;5.90;;;;;;;19.81;93.26;97287.53;1818029;78;21463;-62
2022/08/16 01:27:27;;;;;;;9.68;5.78;;;;;;;19.82;93.45;97287.75;1809447;78;21837;-60
2022/08/16 01:30:11;;;;;;;9.78;6.40;;;;;;;19.81;93.45;97297.05;1792039;78;21226;-60
2022/08/16 01:32:41;;;;;;;12.37;6.40;;;;;;;19.78;93.54;97300.52;1812160;78;20900;-62
2022/08/16 01:35:15;;;;;;;8.75;5.45;;;;;;;19.74;93.65;97299.66;1812198;78;20959;-62
2022/08/16 01:37:46;;;;;;;10.20;5.97;;;;;;;19.73;93.78;97296.18;1810515;78;20999;-62
2022/08/16 01:40:15;;;;;;;14.70;7.22;;;;;;;19.75;93.83;97294.45;1809867;78;20923;-62
2022/08/16 01:42:43;;;;;;;12.95;6.33;;;;;;;19.75;93.88;97290.38;1811546;78;21206;-62
2022/08/16 01:45:10;;;;;;;10.93;6.22;;;;;;;19.74;93.93;97283.36;1810268;77;21486;-62
2022/08/16 01:47:36;;;;;;;12.65;6.80;;;;;;;19.75;93.89;97285.73;1812547;78;21447;-62
2022/08/16 01:50:04;;;;;;;10.72;6.33;;;;;;;19.74;93.85;97282.79;1812746;78;20960;-63
2022/08/16 01:52:31;;;;;;;9.55;6.12;;;;;;;19.75;93.98;97280.86;1805057;78;21407;-62
2022/08/16 01:54:59;;;;;;;11.70;6.53;;;;;;;19.70;94.13;97278.45;1808621;78;21108;-62
2022/08/16 01:57:27;;;;;;;10.68;5.78;;;;;;;19.65;94.25;97267.90;1811898;78;21035;-63
2022/08/16 01:59:54;;;;;;;13.50;6.50;;;;;;;19.58;94.45;97274.02;1810470;78;20998;-62
2022/08/16 02:02:23;;;;;;;8.20;6.05;;;;;;;19.53;94.78;97264.82;1810307;78;20930;-63
2022/08/16 02:04:50;;;;;;;10.70;5.80;;;;;;;19.52;95.11;97262.48;1808639;78;21445;-62
2022/08/16 02:07:17;;;;;;;12.05;5.85;;;;;;;19.54;95.33;97261.53;1817676;78;22004;-63
2022/08/16 02:09:45;;;;;;;11.30;5.83;;;;;;;19.53;95.58;97257.23;1807461;78;20915;-62
2022/08/16 02:12:12;;;;;;;11.57;6.42;;;;;;;19.49;95.85;97261.27;1808027;78;20995;-63
2022/08/16 02:14:38;;;;;;;14.03;5.90;;;;;;;19.45;96.21;97259.66;1815760;78;20950;-63
2022/08/16 02:17:08;;;;;;;7.80;5.70;;;;;;;19.46;96.38;97262.00;1814841;78;21075;-62
2022/08/16 02:19:36;;;;;;;13.68;6.17;;;;;;;19.45;96.48;97265.88;1810964;78;21701;-63
2022/08/16 02:22:04;;;;;;;13.32;6.70;;;;;;;19.45;96.65;97262.38;1814561;78;20938;-62
2022/08/16 02:24:30;;;;;;;9.50;5.72;;;;;;;19.46;96.66;97265.28;1802526;78;21497;-63
2022/08/16 02:26:57;;;;;;;11.05;5.62;;;;;;;19.46;96.82;97260.64;1810252;78;20955;-63
2022/08/16 02:29:24;;;;;;;9.05;5.67;;;;;;;19.46;96.94;97263.92;1797165;78;21041;-62
2022/08/16 02:31:51;;;;;;;12.68;5.58;;;;;;;19.42;97.09;97253.59;1807177;78;21202;-62
2022/08/16 02:36:51;;;;;;;9.93;5.25;;;;;;;19.39;97.56;97244.80;1813078;78;20916;-63
2022/08/16 02:39:19;;;;;;;11.75;6.85;;;;;;;19.41;97.82;97254.72;1810261;78;20876;-63
2022/08/16 02:41:48;;;;;;;8.35;6.17;;;;;;;19.44;97.91;97263.50;1810905;78;20946;-62
2022/08/16 02:44:15;;;;;;;12.80;5.70;;;;;;;19.45;97.79;97252.86;1783904;78;21265;-62
2022/08/16 02:46:43;;;;;;;8.05;5.50;;;;;;;19.43;97.82;97253.81;1810085;78;20863;-62
2022/08/16 02:49:10;;;;;;;10.95;5.92;;;;;;;19.37;97.88;97248.46;1814547;78;20905;-62
2022/08/16 02:51:37;;;;;;;8.30;5.58;;;;;;;19.35;98.11;97249.37;1813588;78;21388;-61
2022/08/16 02:54:06;;;;;;;14.18;5.85;;;;;;;19.33;98.25;97246.25;1811458;78;21563;-63
2022/08/16 02:56:33;;;;;;;9.30;5.47;;;;;;;19.32;98.38;97251.45;1810595;78;21055;-63
2022/08/16 02:59:00;;;;;;;11.57;6.05;;;;;;;19.32;98.57;97250.09;1809765;78;20876;-62
2022/08/16 03:01:29;;;;;;;10.28;5.95;;;;;;;19.36;98.75;97255.81;1814690;78;20912;-62
2022/08/16 03:03:58;;;;;;;11.68;5.75;;;;;;;19.40;98.65;97253.17;1815070;78;20916;-61
2022/08/16 03:06:25;;;;;;;10.93;5.83;;;;;;;19.41;98.63;97247.37;1810250;78;20967;-61
2022/08/16 03:08:52;;;;;;;10.32;6.00;;;;;;;19.44;98.66;97249.36;1816125;79;21258;-62
2022/08/16 03:11:20;;;;;;;10.98;5.85;;;;;;;19.47;98.61;97243.77;1809422;78;21458;-62
2022/08/16 03:13:50;;;;;;;10.32;6.35;;;;;;;19.47;98.58;97235.63;1820096;78;21361;-62
2022/08/16 03:16:17;;;;;;;9.25;5.42;;;;;;;19.46;98.63;97233.48;1820369;78;21448;-62
2022/08/16 03:18:44;;;;;;;9.28;5.85;;;;;;;19.46;98.75;97229.97;1815244;78;21034;-59
2022/08/16 03:21:11;;;;;;;15.98;5.83;;;;;;;19.41;99.00;97225.64;1812358;78;21113;-60
2022/08/16 03:23:39;;;;;;;10.10;5.95;;;;;;;19.39;99.54;97231.23;1814930;78;20845;-59
2022/08/16 03:26:07;;;;;;;9.98;5.60;;;;;;;19.44;99.84;97233.63;1811560;78;20923;-59
2022/08/16 03:28:34;;;;;;;9.00;5.90;;;;;;;19.46;99.89;97236.77;1813464;78;20963;-60
2022/08/16 03:31:02;;;;;;;8.73;6.08;;;;;;;19.45;99.95;97233.86;1811033;78;21359;-60
2022/08/16 03:33:28;;;;;;;15.48;6.30;;;;;;;19.43;100.00;97232.84;1812586;78;21973;-59
2022/08/16 03:35:59;;;;;;;8.35;5.55;;;;;;;19.40;100.00;97230.09;1805779;78;20932;-60
2022/08/16 03:38:31;;;;;;;12.67;5.90;;;;;;;19.36;100.00;97244.20;1809154;78;21463;-59
2022/08/16 03:40:58;;;;;;;9.03;5.60;;;;;;;19.34;100.00;97245.88;1810743;78;20881;-59
2022/08/16 03:43:26;;;;;;;9.43;5.90;;;;;;;19.38;100.00;97244.61;1808348;78;21410;-59
2022/08/16 03:45:54;;;;;;;10.30;5.87;;;;;;;19.41;100.00;97253.36;1804875;78;21731;-61
2022/08/16 03:48:24;;;;;;;9.13;5.97;;;;;;;19.45;100.00;97246.08;1806672;78;21640;-60
2022/08/16 03:50:51;;;;;;;11.12;5.85;;;;;;;19.49;100.00;97250.98;1809617;78;20857;-61
2022/08/16 03:53:17;;;;;;;10.53;6.53;;;;;;;19.53;100.00;97247.73;1819255;78;21371;-61
2022/08/16 03:55:45;;;;;;;9.10;6.05;;;;;;;19.57;100.00;97244.52;1819684;78;20875;-61
2022/08/16 03:58:12;;;;;;;10.85;6.60;;;;;;;19.59;100.00;97243.57;1821202;78;21303;-61
2022/08/16 04:00:38;;;;;;;13.08;6.03;;;;;;;19.61;100.00;97241.27;1802523;78;20872;-61
2022/08/16 04:03:10;;;;;;;7.65;5.90;;;;;;;19.64;100.00;97239.95;1809656;78;20915;-61
2022/08/16 04:05:39;;;;;;;7.42;5.70;;;;;;;19.70;100.00;97240.42;1812805;78;20979;-61
2022/08/16 04:08:06;;;;;;;9.25;6.47;;;;;;;19.75;100.00;97248.26;1810702;78;20927;-60
2022/08/16 04:10:33;;;;;;;10.53;5.58;;;;;;;19.78;100.00;97246.17;1813109;78;21972;-61
2022/08/16 04:13:00;;;;;;;11.65;6.72;;;;;;;19.80;100.00;97249.30;1811419;78;20908;-61
2022/08/16 04:15:28;;;;;;;10.68;6.28;;;;;;;19.84;100.00;97248.77;1812060;78;20904;-60
2022/08/16 04:18:03;;;;;;;10.38;5.92;;;;;;;19.87;100.00;97250.76;1816154;78;21019;-61
2022/08/16 04:20:30;;;;;;;9.70;5.78;;;;;;;19.92;100.00;97254.52;1787461;79;21010;-61
2022/08/16 04:22:56;;;;;;;12.63;6.00;;;;;;;19.97;100.00;97246.05;1811706;78;21854;-61
2022/08/16 04:25:24;;;;;;;9.90;6.17;;;;;;;20.05;100.00;97246.89;1814133;78;21352;-61
2022/08/16 04:27:51;;;;;;;13.38;6.42;;;;;;;20.10;99.95;97253.38;1812663;78;21687;-61
2022/08/16 04:30:18;;;;;;;11.30;6.55;;;;;;;20.15;99.83;97251.13;1811909;78;21434;-63
2022/08/16 04:32:47;;;;;;;10.95;6.70;;;;;;;20.22;99.63;97245.80;1812993;78;21018;-62
2022/08/16 04:35:16;;;;;;;11.40;6.47;;;;;;;20.29;99.22;97249.96;1812367;78;21108;-62
2022/08/16 04:37:44;;;;;;;12.28;6.40;;;;;;;20.35;98.87;97251.76;1811814;78;20971;-62
2022/08/16 04:40:13;;;;;;;14.50;7.25;;;;;;;20.39;98.78;97247.95;1811215;78;20972;-61
2022/08/16 04:42:41;;;;;;;14.95;6.78;;;;;;;20.46;98.74;97248.60;1813938;78;20936;-63
2022/08/16 04:45:10;;;;;;;14.38;7.10;;;;;;;20.52;98.47;97243.59;1794955;79;21009;-62
2022/08/16 04:47:36;;;;;;;17.62;7.28;;;;;;;20.56;98.31;97249.27;1810704;78;21278;-61
2022/08/16 04:50:15;;;;;;;14.05;6.92;;;;;;;20.60;98.07;97252.05;1812346;78;20972;-61
2022/08/16 04:52:45;;;;;;;10.40;6.83;;;;;;;20.60;97.90;97243.31;1808736;78;20908;-60
2022/08/16 04:55:15;;;;;;;13.68;7.00;;;;;;;20.62;97.72;97245.66;1812495;78;21451;-59
2022/08/16 04:57:43;;;;;;;12.65;6.70;;;;;;;20.63;97.55;97240.42;1812437;78;21014;-61
2022/08/16 05:00:16;;;;;;;15.08;6.78;;;;;;;20.65;97.53;97240.83;1811872;78;21513;-62
2022/08/16 05:02:43;;;;;;;13.53;7.08;;;;;;;20.68;97.43;97237.38;1814033;78;20940;-61
2022/08/16 05:05:11;;;;;;;14.20;6.92;;;;;;;20.71;97.36;97233.88;1796399;78;20863;-61
2022/08/16 05:07:38;;;;;;;9.63;6.92;;;;;;;20.76;97.30;97234.91;1811633;78;20986;-62
2022/08/16 05:10:06;;;;;;;17.15;7.78;;;;;;;20.79;97.22;97230.09;1812624;77;20987;-61
2022/08/16 05:12:33;;;;;;;10.35;7.15;;;;;;;20.84;97.12;97235.20;1814059;78;21902;-62
2022/08/16 05:15:00;;;;;;;11.22;6.80;;;;;;;20.87;96.88;97229.77;1812099;78;21566;-62
2022/08/16 05:17:27;;;;;;;12.65;6.67;;;;;;;20.91;96.82;97229.24;1814823;77;21003;-62
2022/08/16 05:19:55;;;;;;;9.93;6.90;;;;;;;20.94;96.81;97226.32;1812745;78;20955;-61
2022/08/16 05:22:22;;;;;;;12.80;6.95;;;;;;;20.96;96.76;97224.79;1811021;77;21059;-61
2022/08/16 05:24:53;;;;;;;11.93;7.20;;;;;;;20.98;96.75;97218.99;1810843;78;21121;-61
2022/08/16 05:27:20;;;;;;;9.43;6.80;;;;;;;21.00;96.73;97219.39;1812161;78;20865;-61
2022/08/16 05:29:47;;;;;;;10.03;6.58;;;;;;;20.99;96.69;97215.09;1812950;78;20956;-62
2022/08/16 05:32:15;;;;;;;10.30;6.83;;;;;;;20.97;96.77;97207.89;1813310;78;20928;-62
2022/08/16 05:34:42;;;;;;;9.08;6.60;;;;;;;20.97;96.83;97205.16;1817160;78;21161;-60
2022/08/16 05:37:08;;;;;;;12.47;6.85;;;;;;;20.99;96.95;97204.20;1816815;78;21907;-61
2022/08/16 05:39:35;;;;;;;10.85;7.42;;;;;;;20.99;97.04;97204.20;1817154;78;20999;-60
2022/08/16 05:42:03;;;;;;;13.68;7.33;;;;;;;20.98;96.99;97206.73;1810274;78;20962;-61
2022/08/16 05:44:30;;;;;;;14.83;7.87;;;;;;;20.91;97.03;97195.80;1779038;79;21079;-61
2022/08/16 05:46:59;;;;;;;15.32;7.92;;;;;;;20.89;97.20;97192.06;1796232;77;21066;-60
2022/08/16 05:49:28;;;;;;;16.57;7.58;;;;;;;20.88;97.19;97187.02;1800947;77;21736;-60
2022/08/16 05:51:56;;;;;;;17.02;8.15;;;;;;;20.91;97.17;97188.98;1821494;77;21495;-61
2022/08/16 05:54:23;;;;;;;12.95;8.00;;;;;;;20.96;97.18;97192.12;1805542;77;21223;-60
2022/08/16 05:56:49;;;;;;;15.65;8.18;;;;;;;21.03;97.25;97191.42;1807670;77;21057;-60
2022/08/16 06:04:38;;;;;;;;;;;;;;;21.28;97.35;97195.14;1765046;79;21067;-62
2022/08/16 06:07:07;;;;;;;19.70;8.88;;;;;;;21.38;97.06;97191.72;1774609;79;20122;-60
2022/08/16 06:09:34;;;;;;;19.35;8.65;;;;;;;21.45;96.42;97186.88;1765962;79;21059;-60
2022/08/16 06:12:02;;;;;;;16.05;7.83;;;;;;;21.52;96.18;97188.29;1746197;80;21081;-61
2022/08/16 06:14:29;;;;;;;13.85;7.67;;;;;;;21.58;95.78;97187.54;1762984;79;21133;-61
2022/08/16 06:16:56;;;;;;;15.10;8.15;;;;;;;21.65;95.47;97197.13;1772533;80;21094;-62
2022/08/16 06:19:23;;;;;;;17.62;8.80;;;;;;;21.71;95.08;97195.61;1753629;79;21389;-60
2022/08/16 06:21:51;;;;;;;12.65;8.28;;;;;;;21.73;94.44;97190.55;1745101;80;21135;-61
2022/08/16 06:24:18;;;;;;;15.40;8.50;;;;;;;21.77;93.80;97184.53;1758302;79;21102;-60
2022/08/16 06:26:44;;;;;;;17.65;8.33;;;;;;;21.79;93.40;97181.42;1776704;79;21215;-62
2022/08/16 06:29:10;;;;;;;17.15;8.18;;;;;;;21.80;93.33;97182.98;1764498;79;21093;-62
2022/08/16 06:31:39;;;;;;;19.20;8.05;;;;;;;21.83;93.18;97188.45;1745664;80;21005;-62
2022/08/16 06:34:05;;;;;;;23.73;9.20;;;;;;;21.92;93.08;97192.23;1771951;79;20969;-62
2022/08/16 06:36:41;;;;;;;35.70;10.68;;;;;;;22.02;92.66;97196.17;1779590;79;20963;-63
2022/08/16 06:39:16;;;;;;;20.37;9.30;;;;;;;22.14;92.40;97190.38;1773841;80;21131;-62
2022/08/16 06:41:47;;;;;;;24.63;8.55;;;;;;;22.27;91.82;97182.03;1779773;79;21086;-62
2022/08/16 06:44:32;;;;;;;17.65;9.08;;;;;;;22.38;91.61;97181.47;1724720;81;21047;-62
2022/08/16 06:47:01;;;;;;;16.48;8.98;;;;;;;22.55;91.07;97190.28;1743404;81;20948;-64
2022/08/16 06:49:27;;;;;;;19.40;9.33;;;;;;;22.76;90.81;97190.34;1743154;80;21039;-63
2022/08/16 06:51:54;;;;;;;18.80;8.70;;;;;;;22.93;90.00;97190.95;1733742;81;21296;-62
2022/08/16 06:54:22;;;;;;;18.60;8.75;;;;;;;23.13;89.02;97188.01;1743726;80;21508;-62
2022/08/16 06:56:49;;;;;;;11.80;8.08;;;;;;;23.29;88.35;97188.20;1739597;80;21080;-63
2022/08/16 06:59:16;;;;;;;12.93;8.40;;;;;;;23.39;86.61;97186.09;1734219;79;21116;-62
2022/08/16 07:01:44;;;;;;;13.48;8.25;;;;;;;23.41;85.99;97196.03;1741437;80;21423;-63
2022/08/16 07:04:13;;;;;;;15.35;8.35;;;;;;;23.42;85.85;97200.31;1801997;78;21257;-64
2022/08/16 07:06:41;;;;;;;10.53;7.53;;;;;;;23.42;85.39;97205.77;1811097;77;21085;-61
2022/08/16 07:09:13;;;;;;;13.83;7.67;;;;;;;23.34;84.93;97202.84;1810775;77;21521;-61
2022/08/16 07:11:42;;;;;;;10.45;7.60;;;;;;;23.25;84.38;97203.22;1808868;77;21558;-61
2022/08/16 07:14:09;;;;;;;10.88;7.85;;;;;;;23.19;84.07;97208.11;1810866;77;21000;-61
2022/08/16 07:16:41;;;;;;;12.05;8.10;;;;;;;23.11;84.47;97206.74;1805632;79;21235;-61
2022/08/16 07:19:09;;;;;;;16.85;9.08;;;;;;;23.03;84.88;97210.63;1774359;79;21085;-61
2022/08/16 07:21:36;;;;;;;11.30;7.62;;;;;;;22.96;85.38;97205.78;1796301;78;21094;-63
2022/08/16 07:24:06;;;;;;;18.52;7.72;;;;;;;22.90;85.22;97204.58;1815460;77;21357;-63
2022/08/16 07:26:33;;;;;;;13.53;7.53;;;;;;;22.86;85.01;97208.69;1794762;77;21032;-61
2022/08/16 07:29:01;;;;;;;14.70;7.62;;;;;;;22.83;85.21;97205.36;1815565;77;21165;-62
2022/08/16 07:31:28;;;;;;;11.57;7.00;;;;;;;22.85;85.42;97208.48;1752693;80;21082;-63
2022/08/16 07:33:55;;;;;;;13.38;7.37;;;;;;;22.90;85.10;97204.58;1748684;80;21511;-62
2022/08/16 07:36:25;;;;;;;12.53;6.33;;;;;;;22.99;84.82;97200.30;1765705;79;21260;-62
2022/08/16 07:38:51;;;;;;;10.45;6.05;;;;;;;23.07;83.50;97201.88;1815877;77;21726;-62
2022/08/16 07:41:18;;;;;;;13.68;6.60;;;;;;;23.15;82.77;97206.15;1815905;77;21089;-63
2022/08/16 07:43:46;;;;;;;11.50;6.47;;;;;;;23.24;81.84;97200.31;1808670;77;21482;-62
2022/08/16 07:46:14;;;;;;;11.48;6.75;;;;;;;23.35;81.58;97200.31;1801039;77;21011;-64
2022/08/16 07:48:40;;;;;;;13.03;7.00;;;;;;;23.49;81.18;97194.83;1761932;78;21090;-64
2022/08/16 07:51:07;;;;;;;13.40;7.20;;;;;;;23.62;80.20;97189.91;1823975;77;21496;-63
2022/08/16 07:53:35;;;;;;;9.85;6.62;;;;;;;23.76;79.61;97190.48;1816775;77;21107;-62
2022/08/16 07:56:03;;;;;;;14.87;7.40;;;;;;;23.92;78.37;97189.45;1813180;77;21550;-63
2022/08/16 07:58:32;;;;;;;20.27;6.65;;;;;;;24.03;78.46;97180.61;1807105;77;21073;-63
2022/08/16 08:01:04;;;;;;;14.20;7.00;;;;;;;24.17;78.31;97192.11;1800202;77;20970;-64
2022/08/16 08:03:33;;;;;;;9.58;6.67;;;;;;;24.30;78.05;97180.92;1755365;79;21042;-64
2022/08/16 08:06:00;;;;;;;12.43;6.37;;;;;;;24.35;77.29;97188.10;1796205;78;21119;-63
2022/08/16 08:08:40;;;;;;;15.90;6.58;;;;;;;24.30;75.80;97185.81;1799609;77;21402;-62
2022/08/16 08:11:17;;;;;;;12.20;6.50;;;;;;;24.19;75.63;97193.88;1817354;77;20983;-63
2022/08/16 08:13:49;;;;;;;10.30;6.95;;;;;;;24.08;75.61;97187.66;1814008;77;21089;-63
2022/08/16 08:16:17;;;;;;;10.90;6.60;;;;;;;24.01;76.34;97191.17;1818445;77;21088;-60
2022/08/16 08:18:44;;;;;;;11.88;6.50;;;;;;;23.98;76.77;97186.48;1796801;77;21223;-62
2022/08/16 08:21:10;;;;;;;15.20;6.75;;;;;;;23.94;76.90;97196.67;1808950;77;20915;-60
2022/08/16 08:23:37;;;;;;;14.07;6.42;;;;;;;23.96;77.07;97199.78;1820907;77;20991;-59
2022/08/16 08:26:05;;;;;;;16.15;6.40;;;;;;;24.01;76.81;97195.86;1795968;77;20868;-61
2022/08/16 08:28:33;;;;;;;9.70;6.10;;;;;;;24.05;76.16;97196.62;1811128;77;21467;-60
2022/08/16 08:31:02;;;;;;;8.65;6.45;;;;;;;24.06;76.20;97189.43;1744731;80;21582;-60
2022/08/16 08:33:31;;;;;;;12.05;6.37;;;;;;;24.05;75.68;97196.03;1728391;80;21078;-60
2022/08/16 08:36:03;;;;;;;10.65;6.53;;;;;;;24.06;75.82;97201.73;1799079;78;21365;-60
2022/08/16 08:38:30;;;;;;;11.28;6.55;;;;;;;24.04;75.56;97199.96;1806672;78;21107;-60
2022/08/16 08:40:57;;;;;;;10.78;6.40;;;;;;;24.05;75.58;97206.97;1808034;77;21094;-59
2022/08/16 08:43:24;;;;;;;8.58;6.75;;;;;;;24.06;75.83;97205.84;1804724;77;21234;-59
2022/08/16 08:45:55;;;;;;;9.70;6.50;;;;;;;24.13;76.10;97207.19;1804956;77;20999;-60
2022/08/16 08:48:27;;;;;;;11.90;7.10;;;;;;;24.21;75.86;97210.06;1815460;77;21471;-60
2022/08/16 08:50:54;;;;;;;12.88;7.80;;;;;;;24.28;75.52;97214.75;1800278;79;21519;-59
2022/08/16 08:53:25;;;;;;;15.03;7.33;;;;;;;24.30;75.74;97211.80;1813222;77;21284;-59
2022/08/16 08:55:50;;;;;;;18.42;7.83;;;;;;;24.27;75.07;97221.38;1810485;77;21230;-60
2022/08/16 08:58:17;;;;;;;14.60;8.15;;;;;;;24.18;75.08;97220.45;1783643;78;21563;-58
2022/08/16 09:00:45;;;;;;;11.15;7.58;;;;;;;24.13;75.30;97228.28;1783816;77;20999;-59
2022/08/16 09:03:13;;;;;;;13.95;7.08;;;;;;;24.17;75.56;97221.62;1814114;77;21457;-61
2022/08/16 09:05:41;;;;;;;10.48;7.22;;;;;;;24.28;75.66;97222.34;1827836;77;21082;-59
2022/08/16 09:08:09;;;;;;;15.98;7.65;;;;;;;24.45;76.09;97226.17;1785215;79;21210;-59
2022/08/16 09:10:38;;;;;;;13.60;7.47;;;;;;;24.58;75.16;97222.40;1811510;77;21082;-61
2022/08/16 09:13:06;;;;;;;15.80;7.92;;;;;;;24.61;74.13;97220.24;1809490;77;20927;-61
2022/08/16 09:15:41;;;;;;;12.78;8.15;;;;;;;24.64;74.37;97213.36;1827721;77;21062;-61
2022/08/16 09:18:08;;;;;;;15.43;8.15;;;;;;;24.72;73.95;97211.36;1805160;77;21559;-60
2022/08/16 09:20:35;;;;;;;14.23;7.08;;;;;;;24.70;73.37;97215.09;1826609;77;21032;-59
2022/08/16 09:23:02;;;;;;;16.40;6.92;;;;;;;24.61;73.13;97222.98;1820439;77;21020;-60
2022/08/16 09:25:31;;;;;;;13.25;6.92;;;;;;;24.56;74.35;97215.18;1833259;77;20947;-61
2022/08/16 09:27:58;;;;;;;11.97;7.08;;;;;;;24.69;74.53;97214.89;1838627;77;20918;-63
2022/08/16 09:30:26;;;;;;;12.68;6.75;;;;;;;24.84;74.39;97218.55;1815855;77;20992;-62
2022/08/16 09:32:53;;;;;;;12.82;6.72;;;;;;;25.03;73.34;97213.14;1819704;78;22042;-60
2022/08/16 09:35:23;;;;;;;10.28;6.75;;;;;;;25.05;73.41;97209.40;1803726;78;21014;-62
2022/08/16 09:37:51;;;;;;;13.05;7.15;;;;;;;25.05;73.25;97208.81;1798371;79;21007;-61
2022/08/16 09:40:19;;;;;;;10.28;6.72;;;;;;;25.00;72.74;97215.30;1800817;77;20930;-61
2022/08/16 09:42:45;;;;;;;11.95;6.70;;;;;;;24.88;73.02;97222.62;1804880;77;21014;-60
2022/08/16 09:45:12;;;;;;;9.43;6.45;;;;;;;24.76;73.87;97220.33;1799615;77;21169;-61
2022/08/16 09:47:39;;;;;;;12.63;7.00;;;;;;;24.75;73.73;97229.16;1808984;77;21016;-60
2022/08/16 09:50:09;;;;;;;10.88;6.80;;;;;;;24.89;74.54;97222.83;1778696;79;21564;-60
2022/08/16 09:52:38;;;;;;;9.05;6.70;;;;;;;25.09;74.14;97223.84;1800521;77;21022;-60
2022/08/16 09:55:09;;;;;;;17.10;7.37;;;;;;;25.27;73.44;97220.39;1821061;77;21090;-62
2022/08/16 09:57:36;;;;;;;11.38;6.75;;;;;;;25.45;73.95;97224.36;1812551;77;21213;-61
2022/08/16 10:00:09;;;;;;;15.45;6.42;;;;;;;25.51;72.76;97228.98;1805354;78;21123;-61
2022/08/16 10:02:40;;;;;;;12.18;6.65;;;;;;;25.44;71.78;97229.64;1826573;77;21532;-60
2022/08/16 10:05:08;;;;;;;11.60;6.62;;;;;;;25.31;71.11;97229.34;1805245;77;21499;-62
2022/08/16 10:07:34;;;;;;;9.48;6.55;;;;;;;25.14;71.14;97228.89;1807048;77;21698;-62
2022/08/16 10:10:02;;;;;;;8.95;6.42;;;;;;;24.96;71.25;97231.00;1810274;77;21151;-62
2022/08/16 10:15:17;;;;;;;;;;;;;;;24.78;72.98;97246.16;1815579;77;20986;-63
2022/08/16 10:17:46;;;;;;;11.97;6.22;;;;;;;24.69;73.76;97236.80;1818767;78;20100;-64
2022/08/16 10:20:13;;;;;;;8.43;6.15;;;;;;;24.66;74.30;97244.47;1805494;77;21600;-63
2022/08/16 10:22:40;;;;;;;8.15;6.17;;;;;;;24.63;73.94;97239.20;1815172;78;21136;-62
2022/08/16 10:25:08;;;;;;;7.42;6.15;;;;;;;24.62;74.42;97246.42;1811809;78;21132;-62
2022/08/16 10:27:35;;;;;;;9.65;6.03;;;;;;;24.62;74.97;97250.53;1824364;77;21425;-62
2022/08/16 10:30:05;;;;;;;12.68;5.92;;;;;;;24.64;74.52;97249.53;1816140;77;20979;-62
2022/08/16 10:32:32;;;;;;;8.48;5.70;;;;;;;24.63;73.49;97247.41;1828986;78;20952;-63
2022/08/16 10:35:02;;;;;;;11.15;5.58;;;;;;;24.59;72.72;97245.88;1804393;77;21096;-63
2022/08/16 10:37:30;;;;;;;9.60;5.58;;;;;;;24.55;73.43;97235.51;1804533;78;20969;-63
2022/08/16 10:39:58;;;;;;;9.20;5.45;;;;;;;24.55;73.53;97236.30;1810510;77;20951;-62
2022/08/16 10:42:25;;;;;;;9.33;5.55;;;;;;;24.59;73.84;97234.31;1774597;80;20924;-63
2022/08/16 10:44:51;;;;;;;11.00;6.47;;;;;;;24.71;74.18;97235.80;1747967;78;20994;-63
2022/08/16 10:47:18;;;;;;;10.58;6.05;;;;;;;24.82;73.93;97234.62;1778775;79;21233;-61
2022/08/16 10:49:44;;;;;;;9.95;6.17;;;;;;;25.00;73.97;97231.73;1840464;77;21223;-62
2022/08/16 10:52:11;;;;;;;12.30;6.10;;;;;;;25.23;73.86;97231.95;1830570;77;21053;-62
2022/08/16 10:54:38;;;;;;;11.53;5.45;;;;;;;25.50;73.69;97227.45;1802686;77;21167;-62
2022/08/16 10:57:05;;;;;;;10.30;5.42;;;;;;;25.79;72.65;97230.08;1829142;77;21066;-62
2022/08/16 10:59:32;;;;;;;7.37;4.90;;;;;;;26.04;71.80;97229.04;1828056;77;21458;-62
2022/08/16 11:02:00;;;;;;;9.05;5.33;;;;;;;26.25;69.85;97230.19;1822865;77;21422;-60
2022/08/16 11:04:26;;;;;;;7.62;5.30;;;;;;;26.38;67.47;97228.45;1822203;77;20853;-63
2022/08/16 11:06:53;;;;;;;8.95;5.28;;;;;;;26.36;68.16;97226.71;1805803;77;20904;-62
2022/08/16 11:09:20;;;;;;;5.80;4.72;;;;;;;26.36;68.16;97226.71;1786777;78;21023;-63
2022/08/16 11:11:46;;;;;;;8.80;5.20;;;;;;;26.30;66.88;97232.48;1801884;77;21108;-61
2022/08/16 11:14:13;;;;;;;7.67;4.58;;;;;;;26.32;67.33;97235.00;1798116;77;21049;-61
2022/08/16 11:16:39;;;;;;;8.13;4.65;;;;;;;26.48;67.10;97202.83;1805111;78;21065;-63
2022/08/16 11:19:06;;;;;;;10.48;4.65;;;;;;;26.67;66.65;97232.38;1816303;77;21435;-63
2022/08/16 11:21:33;;;;;;;10.80;4.87;;;;;;;26.89;65.33;97237.01;1822985;77;21173;-61
2022/08/16 11:24:01;;;;;;;11.35;4.80;;;;;;;27.05;65.06;97236.56;1754444;79;21129;-63
2022/08/16 11:26:28;;;;;;;11.50;5.25;;;;;;;27.28;64.28;97230.89;1739437;80;21028;-63
2022/08/16 11:28:56;;;;;;;17.15;6.87;;;;;;;27.41;63.41;97233.27;1783155;79;21022;-63
2022/08/16 11:31:23;;;;;;;11.18;6.00;;;;;;;27.43;62.02;97228.13;1770095;80;21070;-64
2022/08/16 11:33:50;;;;;;;6.50;4.28;;;;;;;27.56;62.74;97222.19;1745547;81;21054;-63
2022/08/16 11:36:18;;;;;;;8.80;4.80;;;;;;;27.61;60.17;97225.84;1720642;81;21128;-63
2022/08/16 11:38:45;;;;;;;8.63;4.15;;;;;;;27.61;59.00;97232.72;1746613;80;21084;-63
2022/08/16 11:41:12;;;;;;;7.30;4.28;;;;;;;27.48;59.38;97233.16;1722167;81;21531;-63